Time;durP1;ratioP1;P1;durP2;ratioP2;P2;SDS_P1;SDS_P2;PMS_P1;PMS_P2;Temp;Humidity;BMP_temperature;BMP_pressure;BME280_temperature;BME280_humidity;BME280_pressure;Samples;Min_cycle;Max_cycle;Signal;HPM_P1;HPM_P2
2024/03/23 00:02:06;;;;;;;;;;;;;;;16.37;46.07;101004.03;5035917;28;1128;-49
2024/03/23 00:04:32;;;;;;;;;;;;;;;15.34;47.26;101001.84;5035781;28;1906;-51
2024/03/23 00:06:58;;;;;;;;;;;;;;;15.10;46.58;100999.81;5035354;28;1199;-49
2024/03/23 00:09:24;;;;;;;;;;;;;;;15.78;47.45;101000.78;5035662;28;1195;-45
2024/03/23 00:11:50;;;;;;;;;;;;;;;15.52;47.01;100999.81;5035746;28;1395;-48
2024/03/23 00:14:16;;;;;;;;;;;;;;;15.06;47.23;100992.03;5035822;28;1072;-48
2024/03/23 00:16:42;;;;;;;;;;;;;;;14.88;46.23;100993.22;5035932;28;2803;-48
2024/03/23 00:19:09;;;;;;;;;;;;;;;15.02;46.69;100984.38;5036052;28;1084;-50
2024/03/23 00:21:38;;;;;;;;;;;;;;;16.22;46.04;100989.13;5036243;28;1186;-51
2024/03/23 00:24:07;;;;;;;;;;;;;;;15.09;47.23;100985.72;5035419;28;1971;-49
2024/03/23 00:26:33;;;;;;;;;;;;;;;14.89;46.52;100984.31;5035805;28;1146;-48
2024/03/23 00:28:59;;;;;;;;;;;;;;;16.75;45.73;100996.16;5035957;28;1127;-48
2024/03/23 00:31:25;;;;;;;;;;;;;;;15.86;46.77;100989.66;5035946;28;1111;-50
2024/03/23 00:33:51;;;;;;;;;;;;;;;15.18;46.99;100985.13;5035766;28;1064;-49
2024/03/23 00:36:17;;;;;;;;;;;;;;;15.67;47.71;100985.56;5035846;28;1104;-50
2024/03/23 00:38:43;;;;;;;;;;;;;;;16.40;46.17;100977.25;5035123;28;1099;-50
2024/03/23 00:41:09;;;;;;;;;;;;;;;15.40;47.36;100982.88;5035611;28;1043;-49
2024/03/23 00:43:35;;;;;;;;;;;;;;;15.25;47.96;100982.94;5035711;28;1095;-45
2024/03/23 00:46:01;;;;;;;;;;;;;;;16.35;46.15;100982.03;5034025;28;2895;-47
2024/03/23 00:48:27;;;;;;;;;;;;;;;15.49;46.99;100979.66;5035207;28;1087;-52
2024/03/23 00:50:53;;;;;;;;;;;;;;;15.13;46.64;100973.97;5036018;28;1060;-50
2024/03/23 00:53:19;;;;;;;;;;;;;;;15.12;47.24;100977.56;5039055;28;1099;-49
2024/03/23 00:55:44;;;;;;;;;;;;;;;15.78;47.09;100973.41;5039595;28;1131;-49
2024/03/23 00:58:10;;;;;;;;;;;;;;;15.06;47.61;100970.00;5039265;28;1047;-50
2024/03/23 01:00:35;;;;;;;;;;;;;;;16.88;45.90;100966.94;5039361;28;1028;-50
2024/03/23 01:03:01;;;;;;;;;;;;;;;15.70;47.18;100971.25;5039154;28;1032;-48
2024/03/23 01:05:26;;;;;;;;;;;;;;;15.21;47.36;100962.03;5038868;28;1906;-48
2024/03/23 01:07:52;;;;;;;;;;;;;;;15.01;46.25;100964.16;5039349;28;1043;-49
2024/03/23 01:10:17;;;;;;;;;;;;;;;14.94;45.69;100966.34;5039086;28;1023;-46
2024/03/23 01:12:43;;;;;;;;;;;;;;;16.14;46.70;100963.97;5038857;28;1055;-49
2024/03/23 01:15:08;;;;;;;;;;;;;;;15.55;47.18;100951.88;5034580;28;2577;-50
2024/03/23 01:17:34;;;;;;;;;;;;;;;15.12;47.37;100961.66;5017451;28;1017;-49
2024/03/23 01:19:59;;;;;;;;;;;;;;;14.90;46.67;100959.50;5039222;28;1136;-47
2024/03/23 01:22:25;;;;;;;;;;;;;;;14.65;45.96;100955.69;5038884;28;1172;-49
2024/03/23 01:24:50;;;;;;;;;;;;;;;16.57;46.02;100966.41;5039204;28;1902;-51
2024/03/23 01:27:16;;;;;;;;;;;;;;;15.38;47.22;100956.47;5038079;28;1019;-51
2024/03/23 01:29:41;;;;;;;;;;;;;;;15.02;47.09;100949.94;5039006;28;1245;-49
2024/03/23 01:32:07;;;;;;;;;;;;;;;16.77;45.60;100949.09;5038887;28;1016;-48
2024/03/23 01:34:32;;;;;;;;;;;;;;;15.38;47.44;100951.19;5038839;28;1059;-49
2024/03/23 01:36:58;;;;;;;;;;;;;;;15.12;46.91;100952.84;5038659;28;1092;-49
2024/03/23 01:39:24;;;;;;;;;;;;;;;15.62;47.09;100957.63;5038305;28;1132;-48
2024/03/23 01:41:49;;;;;;;;;;;;;;;15.11;47.17;100948.53;5038774;28;1116;-49
2024/03/23 01:44:16;;;;;;;;;;;;;;;14.95;46.42;100952.13;5038534;28;1906;-47
2024/03/23 01:46:41;;;;;;;;;;;;;;;14.81;46.14;100945.88;5037560;28;2660;-50
2024/03/23 01:49:07;;;;;;;;;;;;;;;15.98;46.42;100950.88;5020859;28;1048;-47
2024/03/23 01:51:33;;;;;;;;;;;;;;;15.34;47.04;100948.84;5037851;28;1071;-48
2024/03/23 01:54:00;;;;;;;;;;;;;;;15.04;46.69;100950.69;5020608;28;1075;-49
2024/03/23 01:56:26;;;;;;;;;;;;;;;14.74;46.47;100941.91;5053569;28;1217;-49
2024/03/23 01:58:51;;;;;;;;;;;;;;;16.32;46.05;100945.06;5037930;28;995;-49
2024/03/23 02:01:17;;;;;;;;;;;;;;;15.55;46.74;100947.44;5038324;28;1086;-47
2024/03/23 02:03:42;;;;;;;;;;;;;;;16.78;45.79;100945.50;5037068;28;1183;-49
2024/03/23 02:06:08;;;;;;;;;;;;;;;17.23;44.76;100944.97;5037738;28;1905;-49
2024/03/23 02:08:33;;;;;;;;;;;;;;;15.72;47.10;100947.28;5020184;28;1107;-46
2024/03/23 02:10:59;;;;;;;;;;;;;;;15.36;46.80;100937.19;5020258;28;1285;-47
2024/03/23 02:13:24;;;;;;;;;;;;;;;15.16;46.38;100943.78;5038362;28;1001;-50
2024/03/23 02:15:50;;;;;;;;;;;;;;;15.04;46.27;100935.66;5037612;28;1958;-51
2024/03/23 02:18:15;;;;;;;;;;;;;;;16.01;46.64;100942.72;5038410;28;1017;-48
2024/03/23 02:20:41;;;;;;;;;;;;;;;15.21;47.35;100944.34;5020280;28;1571;-48
2024/03/23 02:23:12;;;;;;;;;;;;;;;14.95;46.44;100936.22;5037991;28;1012;-50
2024/03/23 02:25:38;;;;;;;;;;;;;;;14.84;45.57;100944.88;5037433;28;1918;-48
2024/03/23 02:28:04;;;;;;;;;;;;;;;15.26;46.76;100944.91;5037093;28;841;-49
2024/03/23 02:30:30;;;;;;;;;;;;;;;15.70;46.45;100943.91;5037803;28;1072;-51
2024/03/23 02:32:55;;;;;;;;;;;;;;;15.02;46.75;100945.50;5037857;28;1052;-49
2024/03/23 02:35:21;;;;;;;;;;;;;;;14.73;46.64;100948.13;5037474;28;1184;-49
2024/03/23 02:37:48;;;;;;;;;;;;;;;16.44;45.88;100954.00;5037662;28;1143;-48
2024/03/23 02:40:14;;;;;;;;;;;;;;;15.86;46.58;100944.56;5036744;28;1142;-51
2024/03/23 02:42:39;;;;;;;;;;;;;;;15.11;47.32;100946.72;5037724;28;1067;-50
2024/03/23 02:45:05;;;;;;;;;;;;;;;14.95;46.33;100946.00;5037251;28;2631;-49
2024/03/23 02:47:31;;;;;;;;;;;;;;;16.67;45.92;100946.22;5037453;28;1080;-50
2024/03/23 02:49:56;;;;;;;;;;;;;;;15.61;47.01;100938.25;5019503;28;1000;-50
2024/03/23 02:52:22;;;;;;;;;;;;;;;15.10;46.92;100937.06;5037330;28;810;-47
2024/03/23 02:54:47;;;;;;;;;;;;;;;14.99;46.36;100937.75;5037054;28;1028;-49
2024/03/23 02:57:13;;;;;;;;;;;;;;;15.32;47.43;100938.34;5037489;28;1011;-51
2024/03/23 02:59:38;;;;;;;;;;;;;;;15.87;46.83;100935.66;5037255;28;1099;-50
2024/03/23 03:02:04;;;;;;;;;;;;;;;15.11;46.97;100925.53;5037217;28;1035;-47
2024/03/23 03:04:30;;;;;;;;;;;;;;;16.19;46.59;100934.47;5036648;28;1965;-48
2024/03/23 03:06:56;;;;;;;;;;;;;;;15.54;46.78;100921.03;5036908;28;1079;-49
2024/03/23 03:09:21;;;;;;;;;;;;;;;15.09;46.65;100918.59;5036785;28;1106;-50
2024/03/23 03:11:47;;;;;;;;;;;;;;;14.96;46.13;100915.91;5037172;28;1076;-48
2024/03/23 03:14:12;;;;;;;;;;;;;;;16.61;45.29;100917.44;5036719;28;1101;-46
2024/03/23 03:16:38;;;;;;;;;;;;;;;15.36;47.40;100921.28;5036605;28;2634;-51
2024/03/23 03:19:03;;;;;;;;;;;;;;;15.40;47.46;100922.78;5036514;28;1098;-49
2024/03/23 03:21:29;;;;;;;;;;;;;;;16.23;45.95;100921.84;5037322;28;1032;-47
2024/03/23 03:23:56;;;;;;;;;;;;;;;15.33;46.82;100923.28;5036523;28;1028;-48
2024/03/23 03:26:22;;;;;;;;;;;;;;;16.16;46.89;100914.25;5036357;28;1910;-49
2024/03/23 03:28:48;;;;;;;;;;;;;;;15.67;46.69;100915.75;5036976;28;1136;-50
2024/03/23 03:31:17;;;;;;;;;;;;;;;15.17;47.08;100905.72;5036051;28;1060;-50
2024/03/23 03:33:43;;;;;;;;;;;;;;;14.93;46.00;100915.13;5036637;28;1032;-50
2024/03/23 03:36:08;;;;;;;;;;;;;;;15.84;46.63;100921.75;5031066;28;1765;-49
2024/03/23 03:38:37;;;;;;;;;;;;;;;15.90;46.56;100929.28;5036784;28;1112;-50
2024/03/23 03:41:02;;;;;;;;;;;;;;;15.19;46.92;100922.38;5036111;28;1478;-49
2024/03/23 03:43:28;;;;;;;;;;;;;;;14.93;46.21;100924.91;5036561;28;1231;-49
2024/03/23 03:45:54;;;;;;;;;;;;;;;14.85;45.71;100919.25;5036847;28;1922;-48
2024/03/23 03:48:19;;;;;;;;;;;;;;;16.61;45.67;100930.72;5036722;28;1035;-49
2024/03/23 03:50:45;;;;;;;;;;;;;;;15.59;46.80;100926.03;5036450;28;1043;-48
2024/03/23 03:53:11;;;;;;;;;;;;;;;15.10;46.84;100928.28;5036107;28;970;-52
2024/03/23 03:55:36;;;;;;;;;;;;;;;14.93;46.60;100920.44;5036483;28;1111;-48
2024/03/23 03:58:02;;;;;;;;;;;;;;;14.72;46.45;100927.91;5035931;28;1059;-48
2024/03/23 04:00:27;;;;;;;;;;;;;;;16.47;45.51;100940.50;5036742;28;1239;-48
2024/03/23 04:02:53;;;;;;;;;;;;;;;15.27;47.25;100935.97;5035963;28;1144;-51
2024/03/23 04:05:19;;;;;;;;;;;;;;;15.82;46.90;100939.56;5036296;28;1918;-49
2024/03/23 04:07:45;;;;;;;;;;;;;;;15.87;46.50;100940.09;5036332;28;1095;-48
2024/03/23 04:10:11;;;;;;;;;;;;;;;15.10;46.86;100930.94;5036007;28;1055;-48
2024/03/23 04:12:36;;;;;;;;;;;;;;;16.83;45.62;100937.19;5036162;28;1148;-48
2024/03/23 04:15:04;;;;;;;;;;;;;;;15.83;46.76;100935.97;5035897;28;1171;-47
2024/03/23 04:17:31;;;;;;;;;;;;;;;15.26;47.01;100934.28;5035193;28;1025;-49
2024/03/23 04:19:57;;;;;;;;;;;;;;;14.97;46.20;100929.03;5035897;28;1107;-52
2024/03/23 04:22:24;;;;;;;;;;;;;;;16.82;45.62;100943.44;5035569;28;1134;-49
2024/03/23 04:24:50;;;;;;;;;;;;;;;15.55;46.74;100941.28;5035660;28;1906;-48
2024/03/23 04:27:15;;;;;;;;;;;;;;;15.17;46.45;100946.34;5038924;28;1148;-47
2024/03/23 04:29:41;;;;;;;;;;;;;;;14.98;45.92;100948.44;5039865;28;1072;-50
2024/03/23 04:32:06;;;;;;;;;;;;;;;14.73;45.60;100942.84;5039888;28;1059;-51
2024/03/23 04:34:32;;;;;;;;;;;;;;;16.55;45.73;100947.94;5039985;28;1095;-53
2024/03/23 04:36:58;;;;;;;;;;;;;;;15.60;46.88;100948.97;5040114;28;1203;-53
2024/03/23 04:39:24;;;;;;;;;;;;;;;15.11;46.71;100956.47;5040067;28;1091;-52
2024/03/23 04:41:50;;;;;;;;;;;;;;;14.92;46.11;100954.97;5039591;28;954;-54
2024/03/23 04:44:15;;;;;;;;;;;;;;;14.84;45.42;100954.59;5039915;28;1910;-51
2024/03/23 04:46:40;;;;;;;;;;;;;;;15.67;46.60;100951.09;5040045;28;1150;-49
2024/03/23 04:49:06;;;;;;;;;;;;;;;15.50;46.82;100949.53;5039884;28;1000;-46
2024/03/23 04:51:38;;;;;;;;;;;;;;;14.90;46.98;100943.63;5039827;28;1115;-49
2024/03/23 04:54:04;;;;;;;;;;;;;;;15.32;47.62;100948.06;5037971;28;1196;-49
2024/03/23 04:56:31;;;;;;;;;;;;;;;16.60;45.27;100947.63;5053670;28;1051;-50
2024/03/23 04:59:00;;;;;;;;;;;;;;;15.30;46.83;100946.38;5039285;28;1154;-54
2024/03/23 05:01:26;;;;;;;;;;;;;;;14.91;47.03;100943.50;5039626;28;1195;-51
2024/03/23 05:03:52;;;;;;;;;;;;;;;14.73;46.15;100939.34;5025803;28;1127;-53
2024/03/23 05:06:18;;;;;;;;;;;;;;;14.71;45.59;100942.09;5038823;28;1910;-50
2024/03/23 05:08:44;;;;;;;;;;;;;;;14.97;45.81;100944.09;5039720;28;1048;-55
2024/03/23 05:11:10;;;;;;;;;;;;;;;16.21;43.26;100947.63;5039471;28;1126;-57
2024/03/23 05:13:35;;;;;;;;;;;;;;;15.81;43.89;100945.81;5039193;28;1116;-55
2024/03/23 05:16:01;;;;;;;;;;;;;;;15.56;44.45;100943.00;5021683;28;1067;-55
2024/03/23 05:18:28;;;;;;;;;;;;;;;15.37;45.07;100943.34;5039402;28;1110;-55
2024/03/23 05:20:57;;;;;;;;;;;;;;;15.23;45.46;100945.06;5039186;28;1147;-57
2024/03/23 05:23:23;;;;;;;;;;;;;;;15.08;45.55;100944.25;5039213;28;1040;-55
2024/03/23 05:25:48;;;;;;;;;;;;;;;15.91;44.15;100944.25;5039307;28;1989;-54
2024/03/23 05:28:14;;;;;;;;;;;;;;;17.13;41.70;100952.75;5039701;28;909;-52
2024/03/23 05:30:39;;;;;;;;;;;;;;;16.37;43.00;100942.09;5038736;28;988;-52
2024/03/23 05:33:05;;;;;;;;;;;;;;;15.83;44.41;100943.91;5038739;28;1012;-52
2024/03/23 05:35:31;;;;;;;;;;;;;;;15.40;45.05;100937.81;5023683;28;1031;-50
2024/03/23 05:37:58;;;;;;;;;;;;;;;15.30;45.40;100943.75;5070333;28;2668;-51
2024/03/23 05:40:24;;;;;;;;;;;;;;;15.07;46.07;100942.56;5038768;28;1128;-50
2024/03/23 05:42:52;;;;;;;;;;;;;;;15.57;45.30;100936.72;5038973;28;950;-49
2024/03/23 05:45:18;;;;;;;;;;;;;;;16.96;42.00;100938.00;5038360;28;1917;-52
2024/03/23 05:47:44;;;;;;;;;;;;;;;17.07;41.68;100933.72;5038920;28;992;-52
2024/03/23 05:50:12;;;;;;;;;;;;;;;16.08;43.96;100931.69;5038766;28;1150;-48
2024/03/23 05:52:38;;;;;;;;;;;;;;;15.72;44.61;100937.53;5025561;28;969;-50
2024/03/23 05:55:04;;;;;;;;;;;;;;;15.45;45.48;100937.56;5038245;28;1036;-47
2024/03/23 05:57:29;;;;;;;;;;;;;;;15.28;45.66;100936.84;5038255;28;1075;-49
2024/03/23 05:59:55;;;;;;;;;;;;;;;15.17;46.25;100935.72;5038344;28;1063;-50
2024/03/23 06:02:20;;;;;;;;;;;;;;;16.56;43.09;100943.47;5038687;28;1027;-46
2024/03/23 06:04:46;;;;;;;;;;;;;;;17.46;41.25;100933.59;5037624;28;1984;-50
2024/03/23 06:07:13;;;;;;;;;;;;;;;16.50;42.95;100932.31;5038734;28;992;-49
2024/03/23 06:09:42;;;;;;;;;;;;;;;15.89;44.53;100932.91;5038210;28;2807;-50
2024/03/23 06:12:08;;;;;;;;;;;;;;;15.60;45.39;100928.56;5038226;28;1079;-50
2024/03/23 06:14:34;;;;;;;;;;;;;;;15.37;45.74;100922.97;5038036;28;1063;-51
2024/03/23 06:16:59;;;;;;;;;;;;;;;15.22;45.93;100924.81;5069493;28;1031;-49
2024/03/23 06:19:27;;;;;;;;;;;;;;;16.45;43.46;100926.47;5038079;28;1106;-49
2024/03/23 06:21:53;;;;;;;;;;;;;;;17.40;41.70;100921.59;5025476;28;1097;-49
2024/03/23 06:24:18;;;;;;;;;;;;;;;16.43;43.18;100925.75;5037822;28;1912;-51
2024/03/23 06:26:44;;;;;;;;;;;;;;;15.88;44.55;100923.25;5038096;28;1102;-49
2024/03/23 06:29:09;;;;;;;;;;;;;;;15.62;45.05;100928.47;5037630;28;1162;-50
2024/03/23 06:31:35;;;;;;;;;;;;;;;15.43;45.61;100919.94;5037976;28;1051;-53
2024/03/23 06:34:01;;;;;;;;;;;;;;;15.20;46.09;100924.06;5037890;28;1016;-48
2024/03/23 06:36:27;;;;;;;;;;;;;;;15.87;45.13;100922.38;5037379;28;984;-47
2024/03/23 06:38:52;;;;;;;;;;;;;;;17.10;42.32;100923.75;5037947;28;2427;-52
2024/03/23 06:41:19;;;;;;;;;;;;;;;16.99;42.18;100921.84;5037116;28;1126;-53
2024/03/23 06:43:44;;;;;;;;;;;;;;;16.25;43.95;100922.53;5037765;28;1106;-53
2024/03/23 06:46:10;;;;;;;;;;;;;;;15.84;44.78;100921.75;5037704;28;1986;-50
2024/03/23 06:48:35;;;;;;;;;;;;;;;15.59;45.39;100921.59;5036612;28;1175;-50
2024/03/23 06:51:01;;;;;;;;;;;;;;;15.42;45.73;100917.38;5037686;28;1004;-54
2024/03/23 06:53:26;;;;;;;;;;;;;;;15.29;46.36;100918.19;5037047;28;1033;-54
2024/03/23 06:55:52;;;;;;;;;;;;;;;16.72;43.27;100917.53;5037237;28;1044;-54
2024/03/23 06:58:22;;;;;;;;;;;;;;;17.37;41.48;100914.72;5036953;28;1164;-54
2024/03/23 07:00:47;;;;;;;;;;;;;;;16.26;43.95;100914.50;5037365;28;1028;-52
2024/03/23 07:03:13;;;;;;;;;;;;;;;15.88;45.08;100913.47;5036677;28;1011;-54
2024/03/23 07:05:38;;;;;;;;;;;;;;;15.71;45.20;100913.75;5036668;28;1981;-53
2024/03/23 07:08:04;;;;;;;;;;;;;;;15.46;46.17;100912.72;5037175;28;2472;-56
2024/03/23 07:10:30;;;;;;;;;;;;;;;15.23;46.58;100907.13;5037249;28;1039;-52
2024/03/23 07:12:55;;;;;;;;;;;;;;;15.14;46.44;100912.09;5037058;28;1056;-52
2024/03/23 07:15:21;;;;;;;;;;;;;;;16.51;43.91;100911.94;5037180;28;1124;-50
2024/03/23 07:17:47;;;;;;;;;;;;;;;17.41;41.61;100909.16;5036616;28;1103;-53
2024/03/23 07:20:13;;;;;;;;;;;;;;;16.52;43.35;100914.47;5019304;28;1597;-51
2024/03/23 07:22:38;;;;;;;;;;;;;;;15.98;45.03;100910.22;5036666;28;989;-52
2024/03/23 07:25:04;;;;;;;;;;;;;;;15.75;45.20;100908.13;5036527;28;1977;-52
2024/03/23 07:27:30;;;;;;;;;;;;;;;15.52;45.67;100905.22;5019065;28;1114;-52
2024/03/23 07:29:55;;;;;;;;;;;;;;;15.31;46.51;100904.84;5036944;28;1144;-51
2024/03/23 07:32:21;;;;;;;;;;;;;;;15.26;46.91;100904.28;5036492;28;1187;-52
2024/03/23 07:34:46;;;;;;;;;;;;;;;16.65;43.59;100905.63;5019180;28;1190;-51
2024/03/23 07:37:12;;;;;;;;;;;;;;;17.32;41.88;100897.38;5036759;28;1011;-49
2024/03/23 07:39:37;;;;;;;;;;;;;;;16.28;43.94;100898.47;5030374;28;2781;-52
2024/03/23 07:42:03;;;;;;;;;;;;;;;15.91;44.90;100893.84;5036307;28;1027;-52
2024/03/23 07:44:29;;;;;;;;;;;;;;;15.64;45.57;100897.41;5036072;28;1971;-50
2024/03/23 07:46:54;;;;;;;;;;;;;;;15.42;46.28;100897.03;5036672;28;1134;-48
2024/03/23 07:49:20;;;;;;;;;;;;;;;15.28;46.60;100897.09;5035936;28;1237;-49
2024/03/23 07:51:45;;;;;;;;;;;;;;;15.96;45.14;100890.88;5036470;28;1055;-50
2024/03/23 07:54:11;;;;;;;;;;;;;;;17.12;42.54;100887.28;5036132;28;988;-46
2024/03/23 07:56:36;;;;;;;;;;;;;;;16.74;43.21;100882.88;5036354;28;1005;-52
2024/03/23 07:59:03;;;;;;;;;;;;;;;16.00;44.87;100879.13;5036270;28;1087;-49
2024/03/23 08:01:28;;;;;;;;;;;;;;;15.70;45.25;100885.53;5036620;28;1195;-48
2024/03/23 08:03:54;;;;;;;;;;;;;;;15.53;46.22;100882.22;5035935;28;1202;-49
2024/03/23 08:06:20;;;;;;;;;;;;;;;15.45;46.21;100887.19;5035783;28;1985;-49
2024/03/23 08:08:47;;;;;;;;;;;;;;;15.22;46.85;100886.88;5035576;28;2562;-51
2024/03/23 08:11:13;;;;;;;;;;;;;;;15.96;45.61;100881.13;5035991;28;1214;-51
2024/03/23 08:13:39;;;;;;;;;;;;;;;17.12;42.66;100884.63;5036240;28;1044;-49
2024/03/23 08:16:05;;;;;;;;;;;;;;;16.97;42.61;100883.88;5036080;28;1087;-52
2024/03/23 08:18:31;;;;;;;;;;;;;;;16.18;44.27;100882.34;5035829;28;1145;-51
2024/03/23 08:21:03;;;;;;;;;;;;;;;15.84;45.36;100871.34;5035733;28;1163;-49
2024/03/23 08:23:29;;;;;;;;;;;;;;;15.60;45.96;100870.22;5036404;28;1091;-51
2024/03/23 08:25:57;;;;;;;;;;;;;;;15.39;46.46;100872.50;5035575;28;1964;-51
2024/03/23 08:28:23;;;;;;;;;;;;;;;15.31;46.91;100873.03;5018739;28;1114;-49
2024/03/23 08:30:49;;;;;;;;;;;;;;;15.33;46.71;100863.16;5035796;28;1119;-52
2024/03/23 08:33:15;;;;;;;;;;;;;;;16.73;43.77;100860.78;5035873;28;1094;-45
2024/03/23 08:35:41;;;;;;;;;;;;;;;17.27;42.08;100865.81;5035711;28;1087;-49
2024/03/23 08:38:06;;;;;;;;;;;;;;;16.25;44.41;100853.53;5035632;28;2569;-47
2024/03/23 08:40:32;;;;;;;;;;;;;;;15.95;44.88;100860.84;5036087;28;1148;-50
2024/03/23 08:42:57;;;;;;;;;;;;;;;15.76;45.60;100855.94;5035423;28;860;-46
2024/03/23 08:45:24;;;;;;;;;;;;;;;15.51;46.50;100850.50;5035423;28;1922;-49
2024/03/23 08:47:49;;;;;;;;;;;;;;;15.32;46.71;100842.06;5036324;28;1147;-48
2024/03/23 08:50:15;;;;;;;;;;;;;;;15.94;45.81;100850.34;5035493;28;981;-46
2024/03/23 08:52:40;;;;;;;;;;;;;;;17.20;42.62;100853.97;5035598;28;1008;-51
2024/03/23 08:55:06;;;;;;;;;;;;;;;17.05;42.77;100847.94;5035440;28;1048;-48
2024/03/23 08:57:32;;;;;;;;;;;;;;;16.21;44.44;100842.31;5035210;28;1124;-47
2024/03/23 08:59:58;;;;;;;;;;;;;;;15.86;45.20;100837.59;5035894;28;1131;-48
2024/03/23 09:02:23;;;;;;;;;;;;;;;15.67;45.77;100842.38;5035646;28;1056;-44
2024/03/23 09:04:49;;;;;;;;;;;;;;;15.50;46.31;100832.88;5035643;28;1910;-49
2024/03/23 09:07:14;;;;;;;;;;;;;;;15.35;46.63;100828.63;5017727;28;1048;-46
2024/03/23 09:09:40;;;;;;;;;;;;;;;15.99;45.39;100829.66;5035412;28;2778;-46
2024/03/23 09:12:05;;;;;;;;;;;;;;;17.19;42.66;100828.31;5036240;28;1028;-45
2024/03/23 09:14:31;;;;;;;;;;;;;;;16.52;43.81;100826.84;5039469;28;1091;-46
2024/03/23 09:16:57;;;;;;;;;;;;;;;15.96;45.26;100821.91;5039186;28;1087;-47
2024/03/23 09:19:22;;;;;;;;;;;;;;;15.69;45.85;100817.53;5039056;28;1126;-49
2024/03/23 09:21:49;;;;;;;;;;;;;;;15.53;46.21;100818.59;5039237;28;1145;-43
2024/03/23 09:24:14;;;;;;;;;;;;;;;15.32;46.48;100805.81;5039308;28;1894;-45
2024/03/23 09:26:40;;;;;;;;;;;;;;;15.72;46.45;100815.53;5039216;28;1063;-42
2024/03/23 09:29:05;;;;;;;;;;;;;;;17.04;43.17;100809.88;5039162;28;1178;-47
2024/03/23 09:31:33;;;;;;;;;;;;;;;17.32;42.32;100801.66;5021166;28;1128;-48
2024/03/23 09:33:59;;;;;;;;;;;;;;;16.35;44.54;100804.16;5038756;28;1083;-49
2024/03/23 09:36:24;;;;;;;;;;;;;;;16.28;44.16;100798.44;5038432;28;1056;-49
2024/03/23 09:38:50;;;;;;;;;;;;;;;15.76;45.80;100789.63;5038241;28;2798;-45
2024/03/23 09:41:15;;;;;;;;;;;;;;;15.82;45.15;100789.22;5038694;28;1040;-49
2024/03/23 09:43:40;;;;;;;;;;;;;;;15.54;45.89;100785.81;5038256;28;933;-45
2024/03/23 09:46:06;;;;;;;;;;;;;;;15.26;46.76;100777.06;5021182;28;1914;-46
2024/03/23 09:48:32;;;;;;;;;;;;;;;15.94;45.67;100771.59;5038643;28;1039;-49
2024/03/23 09:50:57;;;;;;;;;;;;;;;17.18;42.78;100765.50;5038250;28;1241;-49
2024/03/23 09:53:23;;;;;;;;;;;;;;;17.16;42.44;100759.44;5038387;28;1097;-49
2024/03/23 09:55:48;;;;;;;;;;;;;;;16.20;44.50;100768.94;5038431;28;1110;-48
2024/03/23 09:58:17;;;;;;;;;;;;;;;15.90;45.67;100770.94;5038771;28;1055;-45
2024/03/23 10:00:42;;;;;;;;;;;;;;;15.69;46.05;100768.00;5025396;28;994;-47
2024/03/23 10:03:10;;;;;;;;;;;;;;;15.50;46.25;100763.94;5038708;28;1059;-47
2024/03/23 10:05:36;;;;;;;;;;;;;;;16.33;44.77;100755.63;5038795;28;1972;-48
2024/03/23 10:08:14;;;;;;;;;;;;;;;17.30;42.55;100753.91;5019860;28;2514;-50
2024/03/23 10:10:40;;;;;;;;;;;;;;;16.36;44.63;100755.44;5038712;28;1048;-49
2024/03/23 10:13:05;;;;;;;;;;;;;;;15.93;45.82;100743.38;5020298;28;1164;-45
2024/03/23 10:15:31;;;;;;;;;;;;;;;15.69;46.21;100745.91;5038431;28;996;-48
2024/03/23 10:17:56;;;;;;;;;;;;;;;15.52;46.81;100732.03;5020005;28;1282;-46
2024/03/23 10:20:22;;;;;;;;;;;;;;;15.60;46.37;100732.34;5037610;28;921;-46
2024/03/23 10:22:48;;;;;;;;;;;;;;;17.00;43.52;100724.22;5037623;28;1132;-50
2024/03/23 10:25:14;;;;;;;;;;;;;;;16.84;43.36;100724.53;5036621;28;1979;-48
2024/03/23 10:27:39;;;;;;;;;;;;;;;16.14;45.18;100724.25;5019953;28;1048;-49
2024/03/23 10:30:11;;;;;;;;;;;;;;;15.85;45.70;100716.53;5037581;28;1052;-48
2024/03/23 10:32:37;;;;;;;;;;;;;;;15.56;46.58;100709.66;5020019;28;965;-50
2024/03/23 10:35:19;;;;;;;;;;;;;;;15.42;46.70;100707.94;5037407;28;1051;-49
2024/03/23 10:37:44;;;;;;;;;;;;;;;15.34;47.04;100711.13;5037722;28;1164;-49
2024/03/23 10:40:10;;;;;;;;;;;;;;;15.35;47.19;100704.88;5037164;28;2730;-45
2024/03/23 10:42:36;;;;;;;;;;;;;;;16.83;43.85;100706.03;5020048;28;1115;-49
2024/03/23 10:45:01;;;;;;;;;;;;;;;17.29;42.52;100696.41;5037599;28;1906;-48
2024/03/23 10:47:27;;;;;;;;;;;;;;;16.26;44.79;100686.22;5052673;28;1083;-48
2024/03/23 10:49:54;;;;;;;;;;;;;;;15.95;45.60;100684.91;5052619;28;1063;-51
2024/03/23 10:52:19;;;;;;;;;;;;;;;15.64;46.10;100686.13;5037358;28;1036;-48
2024/03/23 10:54:45;;;;;;;;;;;;;;;15.56;46.64;100685.81;5019907;28;1119;-48
2024/03/23 10:57:15;;;;;;;;;;;;;;;15.33;46.84;100671.50;5019227;28;933;-48
2024/03/23 10:59:40;;;;;;;;;;;;;;;15.20;47.38;100671.50;5019781;28;1067;-49
2024/03/23 11:02:08;;;;;;;;;;;;;;;16.11;45.49;100668.75;5036783;28;1028;-49
2024/03/23 11:04:34;;;;;;;;;;;;;;;17.29;42.88;100676.94;5037227;28;1983;-48
2024/03/23 11:06:59;;;;;;;;;;;;;;;16.57;44.09;100667.16;5036668;28;1008;-50
2024/03/23 11:09:37;;;;;;;;;;;;;;;16.06;45.32;100661.13;5037067;28;2812;-49
2024/03/23 11:12:21;;;;;;;;;;;;;;;15.73;45.94;100671.34;5036762;28;1325;-45
2024/03/23 11:14:48;;;;;;;;;;;;;;;15.51;46.70;100661.41;5037045;28;1059;-53
2024/03/23 11:17:14;;;;;;;;;;;;;;;15.33;47.32;100656.41;5051953;28;1097;-54
2024/03/23 11:19:39;;;;;;;;;;;;;;;15.25;47.47;100654.31;5051709;28;1344;-51
2024/03/23 11:22:05;;;;;;;;;;;;;;;16.53;44.51;100653.28;5037112;28;1179;-52
2024/03/23 11:24:31;;;;;;;;;;;;;;;17.46;42.46;100652.56;5036572;28;1906;-51
2024/03/23 11:27:00;;;;;;;;;;;;;;;16.63;44.03;100648.13;5036264;28;1047;-48
2024/03/23 11:29:25;;;;;;;;;;;;;;;16.12;45.11;100644.75;5036586;28;1016;-48
2024/03/23 11:31:51;;;;;;;;;;;;;;;15.82;45.75;100634.50;5036710;28;1123;-46
2024/03/23 11:34:17;;;;;;;;;;;;;;;15.60;46.20;100631.59;5036468;28;1187;-49
2024/03/23 11:36:43;;;;;;;;;;;;;;;15.53;46.88;100633.81;5031804;28;1127;-49
2024/03/23 11:39:18;;;;;;;;;;;;;;;15.33;46.99;100624.59;5060297;28;2402;-47
2024/03/23 11:41:53;;;;;;;;;;;;;;;15.21;47.67;100626.34;5036690;28;1134;-48
2024/03/23 11:44:19;;;;;;;;;;;;;;;16.00;45.75;100619.09;5036003;28;1062;-47
2024/03/23 11:46:45;;;;;;;;;;;;;;;17.07;43.38;100620.94;5036298;28;1012;-47
2024/03/23 11:49:24;;;;;;;;;;;;;;;16.77;43.92;100617.88;5036373;28;1023;-46
2024/03/23 11:51:50;;;;;;;;;;;;;;;15.98;45.57;100619.22;5036229;28;1152;-46
2024/03/23 11:54:15;;;;;;;;;;;;;;;15.88;45.73;100619.00;5035045;28;1060;-49
2024/03/23 11:56:53;;;;;;;;;;;;;;;15.58;46.63;100609.63;5035835;28;1023;-47
2024/03/23 11:59:34;;;;;;;;;;;;;;;15.33;47.07;100591.97;5035094;28;1176;-47
2024/03/23 12:02:00;;;;;;;;;;;;;;;15.25;47.61;100587.19;5036085;28;1088;-44
2024/03/23 12:04:26;;;;;;;;;;;;;;;15.62;46.99;100579.28;5036386;28;1910;-44
2024/03/23 12:07:08;;;;;;;;;;;;;;;16.93;43.78;100582.16;5036746;28;1079;-46
2024/03/23 12:09:34;;;;;;;;;;;;;;;16.76;43.77;100586.97;5033859;28;2148;-46
2024/03/23 12:12:05;;;;;;;;;;;;;;;16.03;45.34;100571.13;5036229;28;1167;-51
2024/03/23 12:14:31;;;;;;;;;;;;;;;15.71;46.54;100580.44;5036528;28;1048;-48
2024/03/23 12:17:06;;;;;;;;;;;;;;;15.54;46.62;100584.31;5034824;28;1119;-51
2024/03/23 12:19:32;;;;;;;;;;;;;;;15.37;46.82;100562.50;5035435;28;1153;-50
2024/03/23 12:21:58;;;;;;;;;;;;;;;15.22;47.90;100568.88;5036370;28;1058;-52
2024/03/23 12:24:24;;;;;;;;;;;;;;;15.82;46.25;100566.41;5036082;28;1914;-51
2024/03/23 12:26:50;;;;;;;;;;;;;;;17.05;43.46;100559.06;5035795;28;1106;-55
2024/03/23 12:29:15;;;;;;;;;;;;;;;16.82;43.65;100559.06;5035746;28;1023;-49
2024/03/23 12:31:41;;;;;;;;;;;;;;;16.07;45.55;100546.06;5035668;28;1067;-48
2024/03/23 12:34:07;;;;;;;;;;;;;;;15.72;46.65;100557.41;5035612;28;1070;-53
2024/03/23 12:36:32;;;;;;;;;;;;;;;15.57;47.05;100560.22;5036075;28;1136;-51
2024/03/23 12:38:58;;;;;;;;;;;;;;;15.40;47.23;100548.16;5035416;28;2404;-52
2024/03/23 12:41:23;;;;;;;;;;;;;;;15.34;47.47;100551.25;5035908;28;1052;-53
2024/03/23 12:43:49;;;;;;;;;;;;;;;16.06;45.81;100552.34;5035075;28;1053;-55